sensor_id;sensor_type;location;lat;lon;timestamp;pressure;altitude;pressure_sealevel;temperature;humidity
15489;BME280;7846;48.830;9.116;2023-02-13T00:01:43;99771.94;;;5.40;67.81
15489;BME280;7846;48.830;9.116;2023-02-13T00:04:11;99767.13;;;5.50;67.25
15489;BME280;7846;48.830;9.116;2023-02-13T00:06:37;99771.41;;;5.33;67.97
15489;BME280;7846;48.830;9.116;2023-02-13T00:09:02;99766.66;;;5.42;67.52
15489;BME280;7846;48.830;9.116;2023-02-13T00:11:28;99767.66;;;5.39;67.27
15489;BME280;7846;48.830;9.116;2023-02-13T00:13:53;99765.34;;;5.33;66.84
15489;BME280;7846;48.830;9.116;2023-02-13T00:16:18;99779.19;;;5.35;67.33
15489;BME280;7846;48.830;9.116;2023-02-13T00:18:45;99765.97;;;5.38;66.83
15489;BME280;7846;48.830;9.116;2023-02-13T00:21:12;99761.59;;;5.39;67.60
15489;BME280;7846;48.830;9.116;2023-02-13T00:23:38;99763.78;;;5.29;67.57
15489;BME280;7846;48.830;9.116;2023-02-13T00:26:06;99768.56;;;5.21;69.59
15489;BME280;7846;48.830;9.116;2023-02-13T00:28:32;99762.50;;;5.20;68.35
15489;BME280;7846;48.830;9.116;2023-02-13T00:31:02;99769.34;;;5.23;69.37
15489;BME280;7846;48.830;9.116;2023-02-13T00:33:28;99760.03;;;5.17;68.39
15489;BME280;7846;48.830;9.116;2023-02-13T00:36:01;99763.78;;;5.29;68.44
15489;BME280;7846;48.830;9.116;2023-02-13T00:38:28;99760.75;;;5.38;67.42
15489;BME280;7846;48.830;9.116;2023-02-13T00:40:54;99752.53;;;5.28;67.60
15489;BME280;7846;48.830;9.116;2023-02-13T00:43:19;99765.47;;;5.13;67.51
15489;BME280;7846;48.830;9.116;2023-02-13T00:45:47;99765.22;;;5.00;69.24
15489;BME280;7846;48.830;9.116;2023-02-13T00:48:13;99770.09;;;4.89;69.71
15489;BME280;7846;48.830;9.116;2023-02-13T00:50:40;99766.88;;;4.83;70.41
15489;BME280;7846;48.830;9.116;2023-02-13T00:53:07;99767.16;;;5.14;69.02
15489;BME280;7846;48.830;9.116;2023-02-13T00:55:32;99757.41;;;5.17;68.02
15489;BME280;7846;48.830;9.116;2023-02-13T00:57:59;99763.94;;;5.08;68.90
15489;BME280;7846;48.830;9.116;2023-02-13T01:00:27;99764.09;;;5.05;69.21
15489;BME280;7846;48.830;9.116;2023-02-13T01:02:54;99756.91;;;4.92;69.21
15489;BME280;7846;48.830;9.116;2023-02-13T01:05:19;99760.56;;;5.06;68.66
15489;BME280;7846;48.830;9.116;2023-02-13T01:07:46;99760.25;;;5.13;68.54
15489;BME280;7846;48.830;9.116;2023-02-13T01:10:11;99754.78;;;5.00;67.69
15489;BME280;7846;48.830;9.116;2023-02-13T01:12:38;99758.09;;;5.03;67.71
15489;BME280;7846;48.830;9.116;2023-02-13T01:15:04;99764.22;;;5.02;68.82
15489;BME280;7846;48.830;9.116;2023-02-13T01:17:29;99759.09;;;4.82;68.22
15489;BME280;7846;48.830;9.116;2023-02-13T01:19:55;99761.28;;;4.91;68.01
15489;BME280;7846;48.830;9.116;2023-02-13T01:22:20;99769.16;;;3.95;70.26
15489;BME280;7846;48.830;9.116;2023-02-13T01:24:45;99764.22;;;3.89;71.20
15489;BME280;7846;48.830;9.116;2023-02-13T01:27:14;99760.84;;;3.87;71.46
15489;BME280;7846;48.830;9.116;2023-02-13T01:29:39;99752.38;;;3.82;71.78
15489;BME280;7846;48.830;9.116;2023-02-13T01:32:05;99752.59;;;3.77;71.70
15489;BME280;7846;48.830;9.116;2023-02-13T01:34:32;99746.41;;;3.80;72.40
15489;BME280;7846;48.830;9.116;2023-02-13T01:36:57;99750.69;;;3.81;71.79
15489;BME280;7846;48.830;9.116;2023-02-13T01:39:24;99748.34;;;4.14;70.06
15489;BME280;7846;48.830;9.116;2023-02-13T01:41:52;99751.56;;;4.00;70.10
15489;BME280;7846;48.830;9.116;2023-02-13T01:47:09;99749.75;;;4.02;70.69
15489;BME280;7846;48.830;9.116;2023-02-13T01:49:39;99746.44;;;3.99;71.35
15489;BME280;7846;48.830;9.116;2023-02-13T01:52:06;99744.25;;;3.90;71.07
15489;BME280;7846;48.830;9.116;2023-02-13T01:54:33;99748.53;;;3.91;71.21
15489;BME280;7846;48.830;9.116;2023-02-13T01:57:03;99749.31;;;3.93;71.12
15489;BME280;7846;48.830;9.116;2023-02-13T01:59:48;99746.88;;;3.90;72.33
15489;BME280;7846;48.830;9.116;2023-02-13T02:02:16;99755.13;;;3.58;73.25
15489;BME280;7846;48.830;9.116;2023-02-13T02:04:42;99756.75;;;3.81;73.47
15489;BME280;7846;48.830;9.116;2023-02-13T02:07:17;99752.50;;;3.99;72.34
15489;BME280;7846;48.830;9.116;2023-02-13T02:09:43;99751.03;;;3.94;72.31
15489;BME280;7846;48.830;9.116;2023-02-13T02:12:29;99752.25;;;3.85;72.86
15489;BME280;7846;48.830;9.116;2023-02-13T02:14:58;99758.38;;;3.84;72.18
15489;BME280;7846;48.830;9.116;2023-02-13T02:17:25;99756.81;;;3.59;73.67
15489;BME280;7846;48.830;9.116;2023-02-13T02:23:11;99754.03;;;3.23;75.05
15489;BME280;7846;48.830;9.116;2023-02-13T02:26:10;99752.81;;;4.31;72.75
15489;BME280;7846;48.830;9.116;2023-02-13T02:37:32;99736.75;;;3.82;72.01
15489;BME280;7846;48.830;9.116;2023-02-13T02:43:18;99736.44;;;3.69;71.86
15489;BME280;7846;48.830;9.116;2023-02-13T02:45:55;99733.72;;;3.52;72.02
15489;BME280;7846;48.830;9.116;2023-02-13T02:48:49;99740.19;;;3.63;71.70
15489;BME280;7846;48.830;9.116;2023-02-13T02:51:44;99724.56;;;3.63;71.25
15489;BME280;7846;48.830;9.116;2023-02-13T02:54:13;99730.16;;;3.54;71.18
15489;BME280;7846;48.830;9.116;2023-02-13T02:57:03;99735.22;;;3.37;71.29
15489;BME280;7846;48.830;9.116;2023-02-13T02:59:31;99742.63;;;3.26;71.51
15489;BME280;7846;48.830;9.116;2023-02-13T03:02:17;99742.53;;;3.49;70.76
15489;BME280;7846;48.830;9.116;2023-02-13T03:05:02;99747.25;;;3.39;70.96
15489;BME280;7846;48.830;9.116;2023-02-13T03:07:47;99736.78;;;3.41;71.07
15489;BME280;7846;48.830;9.116;2023-02-13T03:10:26;99733.78;;;3.30;72.13
15489;BME280;7846;48.830;9.116;2023-02-13T03:13:16;99737.69;;;3.40;72.07
15489;BME280;7846;48.830;9.116;2023-02-13T03:15:49;99747.63;;;3.10;72.92
15489;BME280;7846;48.830;9.116;2023-02-13T03:18:38;99742.06;;;3.19;72.97
15489;BME280;7846;48.830;9.116;2023-02-13T03:21:36;99746.59;;;3.14;73.51
15489;BME280;7846;48.830;9.116;2023-02-13T03:24:50;99746.97;;;3.25;73.04
15489;BME280;7846;48.830;9.116;2023-02-13T03:27:44;99747.59;;;3.32;72.31
15489;BME280;7846;48.830;9.116;2023-02-13T03:30:42;99756.34;;;3.09;73.21
15489;BME280;7846;48.830;9.116;2023-02-13T03:33:34;99743.78;;;3.19;72.28
15489;BME280;7846;48.830;9.116;2023-02-13T03:36:31;99746.16;;;3.25;72.33
15489;BME280;7846;48.830;9.116;2023-02-13T03:39:23;99747.25;;;3.19;71.89
15489;BME280;7846;48.830;9.116;2023-02-13T03:42:02;99754.38;;;3.14;71.41
15489;BME280;7846;48.830;9.116;2023-02-13T03:44:43;99748.53;;;3.09;71.55
15489;BME280;7846;48.830;9.116;2023-02-13T03:47:13;99758.22;;;3.05;72.10
15489;BME280;7846;48.830;9.116;2023-02-13T03:49:48;99763.22;;;3.10;72.15
15489;BME280;7846;48.830;9.116;2023-02-13T03:55:15;99764.47;;;3.22;72.04
15489;BME280;7846;48.830;9.116;2023-02-13T03:58:20;99761.50;;;3.31;71.41
15489;BME280;7846;48.830;9.116;2023-02-13T04:01:08;99760.66;;;3.30;71.56
15489;BME280;7846;48.830;9.116;2023-02-13T04:03:48;99771.53;;;3.20;72.09
15489;BME280;7846;48.830;9.116;2023-02-13T04:06:18;99774.25;;;3.17;71.36
15489;BME280;7846;48.830;9.116;2023-02-13T04:08:44;99770.31;;;3.06;71.83
15489;BME280;7846;48.830;9.116;2023-02-13T04:11:16;99778.31;;;3.22;71.59
15489;BME280;7846;48.830;9.116;2023-02-13T04:13:48;99776.34;;;3.07;72.47
15489;BME280;7846;48.830;9.116;2023-02-13T04:16:20;99791.91;;;3.08;72.58
15489;BME280;7846;48.830;9.116;2023-02-13T04:18:48;99787.59;;;3.07;73.00
15489;BME280;7846;48.830;9.116;2023-02-13T04:21:14;99782.34;;;3.09;72.53
15489;BME280;7846;48.830;9.116;2023-02-13T04:23:39;99785.00;;;3.07;72.46
15489;BME280;7846;48.830;9.116;2023-02-13T04:26:07;99783.19;;;3.09;73.00
15489;BME280;7846;48.830;9.116;2023-02-13T04:28:37;99784.88;;;3.10;72.22
15489;BME280;7846;48.830;9.116;2023-02-13T04:31:04;99779.53;;;2.93;72.97
15489;BME280;7846;48.830;9.116;2023-02-13T04:33:29;99784.28;;;3.04;72.65
15489;BME280;7846;48.830;9.116;2023-02-13T04:35:54;99783.00;;;3.14;71.57
15489;BME280;7846;48.830;9.116;2023-02-13T04:38:22;99784.16;;;3.07;71.69
15489;BME280;7846;48.830;9.116;2023-02-13T04:40:47;99780.09;;;3.00;71.38
15489;BME280;7846;48.830;9.116;2023-02-13T04:43:13;99782.13;;;2.93;71.57
15489;BME280;7846;48.830;9.116;2023-02-13T04:45:39;99784.03;;;2.66;72.83
15489;BME280;7846;48.830;9.116;2023-02-13T04:48:04;99792.38;;;2.74;72.42
15489;BME280;7846;48.830;9.116;2023-02-13T04:50:30;99797.47;;;2.77;71.97
15489;BME280;7846;48.830;9.116;2023-02-13T04:52:56;99793.81;;;2.81;72.04
15489;BME280;7846;48.830;9.116;2023-02-13T04:55:26;99787.59;;;2.85;72.15
15489;BME280;7846;48.830;9.116;2023-02-13T04:57:53;99791.06;;;2.86;71.50
15489;BME280;7846;48.830;9.116;2023-02-13T05:00:20;99795.78;;;2.76;71.95
15489;BME280;7846;48.830;9.116;2023-02-13T05:02:47;99802.03;;;2.71;71.97
15489;BME280;7846;48.830;9.116;2023-02-13T05:05:13;99789.84;;;2.73;71.77
15489;BME280;7846;48.830;9.116;2023-02-13T05:07:40;99789.66;;;2.77;71.88
15489;BME280;7846;48.830;9.116;2023-02-13T05:10:06;99784.31;;;2.58;72.64
15489;BME280;7846;48.830;9.116;2023-02-13T05:12:31;99799.44;;;2.71;72.50
15489;BME280;7846;48.830;9.116;2023-02-13T05:14:57;99803.56;;;2.76;72.32
15489;BME280;7846;48.830;9.116;2023-02-13T05:17:22;99780.84;;;3.46;70.18
15489;BME280;7846;48.830;9.116;2023-02-13T05:19:47;99788.38;;;2.65;71.72
15489;BME280;7846;48.830;9.116;2023-02-13T05:22:14;99792.13;;;2.58;71.89
15489;BME280;7846;48.830;9.116;2023-02-13T05:24:58;99793.16;;;2.54;71.91
15489;BME280;7846;48.830;9.116;2023-02-13T05:27:23;99793.59;;;2.65;71.58
15489;BME280;7846;48.830;9.116;2023-02-13T05:29:49;99802.22;;;2.66;71.27
15489;BME280;7846;48.830;9.116;2023-02-13T05:32:17;99798.28;;;2.56;71.54
15489;BME280;7846;48.830;9.116;2023-02-13T05:34:48;99790.25;;;2.62;71.41
15489;BME280;7846;48.830;9.116;2023-02-13T05:37:14;99792.97;;;2.59;71.19
15489;BME280;7846;48.830;9.116;2023-02-13T05:39:42;99797.44;;;2.55;71.92
15489;BME280;7846;48.830;9.116;2023-02-13T05:42:11;99794.13;;;2.74;72.15
15489;BME280;7846;48.830;9.116;2023-02-13T05:44:37;99802.19;;;2.67;71.82
15489;BME280;7846;48.830;9.116;2023-02-13T05:47:03;99789.28;;;2.64;71.40
15489;BME280;7846;48.830;9.116;2023-02-13T05:49:28;99796.19;;;2.65;71.09
15489;BME280;7846;48.830;9.116;2023-02-13T05:51:54;99791.91;;;2.64;71.13
15489;BME280;7846;48.830;9.116;2023-02-13T05:54:20;99796.47;;;2.58;71.26
15489;BME280;7846;48.830;9.116;2023-02-13T05:56:45;99779.81;;;2.63;71.79
15489;BME280;7846;48.830;9.116;2023-02-13T05:59:11;99792.13;;;2.58;71.98
15489;BME280;7846;48.830;9.116;2023-02-13T06:01:36;99787.28;;;3.15;70.26
15489;BME280;7846;48.830;9.116;2023-02-13T06:04:02;99784.66;;;3.37;68.85
15489;BME280;7846;48.830;9.116;2023-02-13T06:06:27;99781.31;;;2.69;69.80
15489;BME280;7846;48.830;9.116;2023-02-13T06:08:52;99784.84;;;2.45;71.34
15489;BME280;7846;48.830;9.116;2023-02-13T06:11:18;99784.25;;;2.38;71.54
15489;BME280;7846;48.830;9.116;2023-02-13T06:13:43;99783.31;;;3.06;71.61
15489;BME280;7846;48.830;9.116;2023-02-13T06:16:10;99779.84;;;2.62;70.85
15489;BME280;7846;48.830;9.116;2023-02-13T06:18:37;99785.75;;;2.43;72.31
15489;BME280;7846;48.830;9.116;2023-02-13T06:21:03;99783.88;;;2.47;72.15
15489;BME280;7846;48.830;9.116;2023-02-13T06:23:30;99784.63;;;2.51;72.30
15489;BME280;7846;48.830;9.116;2023-02-13T06:26:06;99786.25;;;2.53;72.31
15489;BME280;7846;48.830;9.116;2023-02-13T06:28:32;99790.16;;;2.41;72.22
15489;BME280;7846;48.830;9.116;2023-02-13T06:30:58;99790.16;;;2.41;72.42
15489;BME280;7846;48.830;9.116;2023-02-13T06:33:23;99790.16;;;2.41;72.03
15489;BME280;7846;48.830;9.116;2023-02-13T06:35:51;99790.16;;;2.41;72.22
15489;BME280;7846;48.830;9.116;2023-02-13T06:38:17;99798.00;;;2.40;72.49
15489;BME280;7846;48.830;9.116;2023-02-13T06:40:45;99786.44;;;2.49;72.25
15489;BME280;7846;48.830;9.116;2023-02-13T06:43:11;99792.78;;;2.41;72.29
15489;BME280;7846;48.830;9.116;2023-02-13T06:45:36;99794.38;;;2.44;72.05
15489;BME280;7846;48.830;9.116;2023-02-13T06:48:02;99796.09;;;2.45;72.38
15489;BME280;7846;48.830;9.116;2023-02-13T06:50:27;99796.31;;;2.39;72.06
15489;BME280;7846;48.830;9.116;2023-02-13T06:52:52;99790.09;;;2.43;72.09
15489;BME280;7846;48.830;9.116;2023-02-13T06:55:18;99788.97;;;2.50;71.96
15489;BME280;7846;48.830;9.116;2023-02-13T06:57:45;99798.28;;;2.56;71.90
15489;BME280;7846;48.830;9.116;2023-02-13T07:00:14;99794.44;;;2.66;71.75
15489;BME280;7846;48.830;9.116;2023-02-13T07:02:41;99798.66;;;2.69;72.04
15489;BME280;7846;48.830;9.116;2023-02-13T07:05:07;99798.66;;;2.69;71.86
15489;BME280;7846;48.830;9.116;2023-02-13T07:07:34;99802.50;;;2.82;72.38
15489;BME280;7846;48.830;9.116;2023-02-13T07:10:00;99804.19;;;2.83;71.87
15489;BME280;7846;48.830;9.116;2023-02-13T07:12:26;99805.56;;;2.91;72.28
15489;BME280;7846;48.830;9.116;2023-02-13T07:14:52;99805.34;;;2.98;71.98
15489;BME280;7846;48.830;9.116;2023-02-13T07:17:18;99801.53;;;3.06;72.24
15489;BME280;7846;48.830;9.116;2023-02-13T07:19:43;99806.59;;;3.09;72.29
15489;BME280;7846;48.830;9.116;2023-02-13T07:22:09;99806.59;;;3.09;72.89
15489;BME280;7846;48.830;9.116;2023-02-13T07:24:35;99800.13;;;3.20;73.58
15489;BME280;7846;48.830;9.116;2023-02-13T07:27:03;99811.25;;;3.45;73.44
15489;BME280;7846;48.830;9.116;2023-02-13T07:29:28;99818.06;;;3.48;73.28
15489;BME280;7846;48.830;9.116;2023-02-13T07:31:54;99816.53;;;3.64;73.08
15489;BME280;7846;48.830;9.116;2023-02-13T07:34:19;99814.88;;;3.82;73.07
15489;BME280;7846;48.830;9.116;2023-02-13T07:36:45;99816.00;;;3.97;72.68
15489;BME280;7846;48.830;9.116;2023-02-13T07:39:11;99811.88;;;4.11;72.28
15489;BME280;7846;48.830;9.116;2023-02-13T07:41:38;99820.75;;;4.07;73.10
15489;BME280;7846;48.830;9.116;2023-02-13T07:44:05;99815.56;;;4.26;72.75
15489;BME280;7846;48.830;9.116;2023-02-13T07:46:33;99820.38;;;4.35;72.70
15489;BME280;7846;48.830;9.116;2023-02-13T07:48:58;99821.53;;;4.49;73.09
15489;BME280;7846;48.830;9.116;2023-02-13T07:51:23;99817.22;;;4.67;72.15
15489;BME280;7846;48.830;9.116;2023-02-13T07:53:50;99816.72;;;4.77;72.21
15489;BME280;7846;48.830;9.116;2023-02-13T07:56:16;99813.19;;;4.97;71.88
15489;BME280;7846;48.830;9.116;2023-02-13T07:58:41;99810.84;;;5.10;71.57
15489;BME280;7846;48.830;9.116;2023-02-13T08:01:10;99815.31;;;5.25;71.87
15489;BME280;7846;48.830;9.116;2023-02-13T08:03:36;99813.03;;;5.37;72.13
15489;BME280;7846;48.830;9.116;2023-02-13T08:06:03;99813.19;;;5.51;71.66
15489;BME280;7846;48.830;9.116;2023-02-13T08:08:29;99809.13;;;5.63;71.67
15489;BME280;7846;48.830;9.116;2023-02-13T08:10:55;99807.59;;;5.76;71.52
15489;BME280;7846;48.830;9.116;2023-02-13T08:13:39;99803.41;;;5.89;71.32
15489;BME280;7846;48.830;9.116;2023-02-13T08:16:05;99810.59;;;6.03;71.56
15489;BME280;7846;48.830;9.116;2023-02-13T08:18:30;99812.75;;;6.12;70.75
15489;BME280;7846;48.830;9.116;2023-02-13T08:20:57;99812.63;;;6.31;71.33
15489;BME280;7846;48.830;9.116;2023-02-13T08:23:24;99819.63;;;6.30;71.11
15489;BME280;7846;48.830;9.116;2023-02-13T08:25:50;99808.50;;;6.43;70.63
15489;BME280;7846;48.830;9.116;2023-02-13T08:28:15;99809.78;;;6.51;71.10
15489;BME280;7846;48.830;9.116;2023-02-13T08:30:42;99810.72;;;6.66;70.83
15489;BME280;7846;48.830;9.116;2023-02-13T08:33:07;99804.91;;;6.93;70.32
15489;BME280;7846;48.830;9.116;2023-02-13T08:35:32;99803.09;;;7.25;70.47
15489;BME280;7846;48.830;9.116;2023-02-13T08:38:03;99802.69;;;7.17;70.53
15489;BME280;7846;48.830;9.116;2023-02-13T08:40:29;99791.69;;;7.26;70.04
15489;BME280;7846;48.830;9.116;2023-02-13T08:43:04;99795.88;;;7.44;69.84
15489;BME280;7846;48.830;9.116;2023-02-13T08:45:31;99796.66;;;7.46;70.02
15489;BME280;7846;48.830;9.116;2023-02-13T08:47:59;99785.66;;;7.70;70.23
15489;BME280;7846;48.830;9.116;2023-02-13T08:50:26;99792.72;;;7.84;69.46
15489;BME280;7846;48.830;9.116;2023-02-13T08:52:52;99790.84;;;8.00;69.24
15489;BME280;7846;48.830;9.116;2023-02-13T08:55:18;99787.97;;;8.19;69.14
15489;BME280;7846;48.830;9.116;2023-02-13T08:57:43;99792.25;;;8.34;67.86
15489;BME280;7846;48.830;9.116;2023-02-13T09:00:09;99796.81;;;8.46;67.92
15489;BME280;7846;48.830;9.116;2023-02-13T09:02:36;99794.91;;;8.48;67.02
15489;BME280;7846;48.830;9.116;2023-02-13T09:05:01;99792.03;;;8.53;67.27
15489;BME280;7846;48.830;9.116;2023-02-13T09:07:29;99793.38;;;8.87;66.91
15489;BME280;7846;48.830;9.116;2023-02-13T09:09:55;99798.81;;;9.11;66.32
15489;BME280;7846;48.830;9.116;2023-02-13T09:12:21;99798.63;;;8.87;65.63
15489;BME280;7846;48.830;9.116;2023-02-13T09:14:47;99806.25;;;9.05;65.82
15489;BME280;7846;48.830;9.116;2023-02-13T09:17:12;99791.91;;;9.23;65.24
15489;BME280;7846;48.830;9.116;2023-02-13T09:19:42;99789.59;;;9.18;65.05
15489;BME280;7846;48.830;9.116;2023-02-13T09:22:07;99794.81;;;9.33;64.19
15489;BME280;7846;48.830;9.116;2023-02-13T09:24:34;99793.50;;;9.26;63.50
15489;BME280;7846;48.830;9.116;2023-02-13T09:26:59;99797.75;;;9.41;63.93
15489;BME280;7846;48.830;9.116;2023-02-13T09:29:24;99792.69;;;9.65;62.98
15489;BME280;7846;48.830;9.116;2023-02-13T09:31:54;99794.75;;;9.60;62.27
15489;BME280;7846;48.830;9.116;2023-02-13T09:34:19;99795.84;;;9.70;62.54
15489;BME280;7846;48.830;9.116;2023-02-13T09:36:45;99796.00;;;9.94;61.88
15489;BME280;7846;48.830;9.116;2023-02-13T09:39:13;99801.09;;;9.70;61.27
15489;BME280;7846;48.830;9.116;2023-02-13T09:41:44;99797.78;;;10.06;60.59
15489;BME280;7846;48.830;9.116;2023-02-13T09:44:19;99800.09;;;10.24;60.76
15489;BME280;7846;48.830;9.116;2023-02-13T09:49:38;99803.22;;;10.67;59.71
15489;BME280;7846;48.830;9.116;2023-02-13T09:52:04;99808.31;;;10.57;59.50
15489;BME280;7846;48.830;9.116;2023-02-13T09:54:29;99811.72;;;10.83;58.40
15489;BME280;7846;48.830;9.116;2023-02-13T09:57:01;99811.28;;;11.13;59.29
15489;BME280;7846;48.830;9.116;2023-02-13T10:05:16;99805.66;;;11.66;55.76
15489;BME280;7846;48.830;9.116;2023-02-13T10:10:54;99810.53;;;10.87;58.12
15489;BME280;7846;48.830;9.116;2023-02-13T10:16:37;99801.34;;;11.41;56.54
15489;BME280;7846;48.830;9.116;2023-02-13T10:22:00;99815.72;;;11.61;56.03
15489;BME280;7846;48.830;9.116;2023-02-13T10:24:43;99812.78;;;11.53;55.50
15489;BME280;7846;48.830;9.116;2023-02-13T10:27:17;99802.31;;;11.75;54.77
15489;BME280;7846;48.830;9.116;2023-02-13T10:29:49;99797.66;;;12.48;54.69
15489;BME280;7846;48.830;9.116;2023-02-13T10:32:45;99801.66;;;13.08;52.63
15489;BME280;7846;48.830;9.116;2023-02-13T10:35:26;99796.06;;;13.34;51.44
15489;BME280;7846;48.830;9.116;2023-02-13T10:37:55;99802.44;;;12.20;53.35
15489;BME280;7846;48.830;9.116;2023-02-13T10:40:30;99792.59;;;12.11;54.10
15489;BME280;7846;48.830;9.116;2023-02-13T10:43:06;99801.47;;;11.75;54.71
15489;BME280;7846;48.830;9.116;2023-02-13T10:56:19;99787.22;;;12.57;52.27
15489;BME280;7846;48.830;9.116;2023-02-13T11:01:58;99776.66;;;13.01;51.81
15489;BME280;7846;48.830;9.116;2023-02-13T11:04:28;99779.22;;;12.91;51.83
15489;BME280;7846;48.830;9.116;2023-02-13T11:06:58;99768.59;;;12.59;51.60
15489;BME280;7846;48.830;9.116;2023-02-13T11:09:28;99767.56;;;12.82;52.04
15489;BME280;7846;48.830;9.116;2023-02-13T11:11:54;99763.53;;;12.56;51.59
15489;BME280;7846;48.830;9.116;2023-02-13T11:17:00;99759.25;;;13.42;50.84
15489;BME280;7846;48.830;9.116;2023-02-13T11:20:00;99762.78;;;13.20;51.24
15489;BME280;7846;48.830;9.116;2023-02-13T11:22:32;99760.34;;;14.02;50.05
15489;BME280;7846;48.830;9.116;2023-02-13T11:25:05;99756.47;;;14.06;49.64
15489;BME280;7846;48.830;9.116;2023-02-13T11:27:33;99755.25;;;13.89;49.72
15489;BME280;7846;48.830;9.116;2023-02-13T11:30:04;99749.88;;;14.00;48.76
15489;BME280;7846;48.830;9.116;2023-02-13T11:32:32;99755.56;;;14.26;48.52
15489;BME280;7846;48.830;9.116;2023-02-13T11:35:25;99754.25;;;14.11;49.12
15489;BME280;7846;48.830;9.116;2023-02-13T11:38:12;99756.22;;;14.09;48.68
15489;BME280;7846;48.830;9.116;2023-02-13T11:40:39;99746.53;;;13.98;48.65
15489;BME280;7846;48.830;9.116;2023-02-13T11:43:06;99745.75;;;14.48;48.73
15489;BME280;7846;48.830;9.116;2023-02-13T11:45:33;99753.56;;;14.40;48.75
15489;BME280;7846;48.830;9.116;2023-02-13T11:47:59;99748.28;;;14.19;48.46
15489;BME280;7846;48.830;9.116;2023-02-13T11:50:29;99750.41;;;14.56;47.99
15489;BME280;7846;48.830;9.116;2023-02-13T11:53:05;99752.63;;;14.91;47.42
15489;BME280;7846;48.830;9.116;2023-02-13T11:55:33;99741.63;;;14.55;47.13
15489;BME280;7846;48.830;9.116;2023-02-13T12:00:37;99743.81;;;15.19;47.00
15489;BME280;7846;48.830;9.116;2023-02-13T12:03:29;99744.09;;;14.87;46.65
15489;BME280;7846;48.830;9.116;2023-02-13T12:06:02;99746.75;;;14.87;46.90
15489;BME280;7846;48.830;9.116;2023-02-13T12:08:30;99742.25;;;14.78;46.69
15489;BME280;7846;48.830;9.116;2023-02-13T12:10:57;99749.75;;;14.63;47.40
15489;BME280;7846;48.830;9.116;2023-02-13T12:13:25;99749.00;;;15.31;46.26
15489;BME280;7846;48.830;9.116;2023-02-13T12:15:57;99749.41;;;15.26;46.08
15489;BME280;7846;48.830;9.116;2023-02-13T12:18:31;99749.84;;;15.21;46.16
15489;BME280;7846;48.830;9.116;2023-02-13T12:26:06;99736.00;;;14.89;46.35
15489;BME280;7846;48.830;9.116;2023-02-13T12:28:45;99739.78;;;15.25;45.67
15489;BME280;7846;48.830;9.116;2023-02-13T12:31:31;99730.28;;;15.61;45.09
15489;BME280;7846;48.830;9.116;2023-02-13T12:37:02;99731.25;;;15.80;44.42
15489;BME280;7846;48.830;9.116;2023-02-13T12:39:35;99733.47;;;15.84;43.68
15489;BME280;7846;48.830;9.116;2023-02-13T12:45:01;99726.00;;;15.97;44.03
15489;BME280;7846;48.830;9.116;2023-02-13T12:47:54;99718.22;;;16.24;43.44
15489;BME280;7846;48.830;9.116;2023-02-13T12:50:48;99724.78;;;16.57;43.07
15489;BME280;7846;48.830;9.116;2023-02-13T12:53:34;99714.16;;;16.84;42.02
15489;BME280;7846;48.830;9.116;2023-02-13T12:56:32;99713.22;;;16.48;42.55
15489;BME280;7846;48.830;9.116;2023-02-13T13:07:39;99703.06;;;17.95;39.93
15489;BME280;7846;48.830;9.116;2023-02-13T13:10:23;99712.34;;;18.17;39.75
15489;BME280;7846;48.830;9.116;2023-02-13T13:13:49;99713.84;;;19.53;37.61
15489;BME280;7846;48.830;9.116;2023-02-13T13:15:51;99711.78;;;20.04;36.95
15489;BME280;7846;48.830;9.116;2023-02-13T13:23:53;99714.72;;;22.32;33.97
15489;BME280;7846;48.830;9.116;2023-02-13T13:29:04;99709.22;;;20.66;35.32
15489;BME280;7846;48.830;9.116;2023-02-13T13:31:31;99702.97;;;21.51;34.92
15489;BME280;7846;48.830;9.116;2023-02-13T13:34:06;99702.56;;;21.54;34.50
15489;BME280;7846;48.830;9.116;2023-02-13T13:36:52;99699.22;;;21.14;34.36
15489;BME280;7846;48.830;9.116;2023-02-13T13:39:41;99692.56;;;22.01;34.11
15489;BME280;7846;48.830;9.116;2023-02-13T13:42:41;99706.31;;;22.57;32.85
15489;BME280;7846;48.830;9.116;2023-02-13T13:45:38;99696.78;;;23.27;32.42
15489;BME280;7846;48.830;9.116;2023-02-13T13:48:42;99694.69;;;22.35;33.21
15489;BME280;7846;48.830;9.116;2023-02-13T13:51:15;99689.00;;;21.56;33.66
15489;BME280;7846;48.830;9.116;2023-02-13T13:56:26;99689.28;;;22.64;32.69
15489;BME280;7846;48.830;9.116;2023-02-13T13:59:17;99691.84;;;23.09;32.52
15489;BME280;7846;48.830;9.116;2023-02-13T14:01:43;99691.16;;;23.00;32.49
15489;BME280;7846;48.830;9.116;2023-02-13T14:04:37;99690.50;;;20.66;35.46
15489;BME280;7846;48.830;9.116;2023-02-13T14:07:12;99681.97;;;21.32;35.23
15489;BME280;7846;48.830;9.116;2023-02-13T14:09:43;99690.63;;;22.09;34.21
15489;BME280;7846;48.830;9.116;2023-02-13T14:14:50;99688.84;;;23.68;31.99
15489;BME280;7846;48.830;9.116;2023-02-13T14:20:26;99685.03;;;22.70;32.42
15489;BME280;7846;48.830;9.116;2023-02-13T14:22:54;99690.81;;;20.94;34.42
15489;BME280;7846;48.830;9.116;2023-02-13T14:25:24;99684.06;;;22.41;33.25
15489;BME280;7846;48.830;9.116;2023-02-13T14:27:59;99689.53;;;22.18;33.43
15489;BME280;7846;48.830;9.116;2023-02-13T14:30:37;99691.84;;;23.09;32.62
15489;BME280;7846;48.830;9.116;2023-02-13T14:33:05;99686.53;;;22.94;31.77
15489;BME280;7846;48.830;9.116;2023-02-13T14:35:34;99689.22;;;21.98;33.06
15489;BME280;7846;48.830;9.116;2023-02-13T14:38:04;99682.34;;;23.34;32.61
15489;BME280;7846;48.830;9.116;2023-02-13T14:40:43;99679.00;;;21.49;33.70
15489;BME280;7846;48.830;9.116;2023-02-13T14:45:56;99673.88;;;23.59;31.54
15489;BME280;7846;48.830;9.116;2023-02-13T14:48:33;99676.28;;;24.10;31.42
15489;BME280;7846;48.830;9.116;2023-02-13T14:51:00;99678.88;;;22.10;32.89
15489;BME280;7846;48.830;9.116;2023-02-13T14:53:30;99683.31;;;22.03;32.78
15489;BME280;7846;48.830;9.116;2023-02-13T14:56:10;99670.88;;;22.46;32.62
15489;BME280;7846;48.830;9.116;2023-02-13T14:58:54;99666.78;;;22.29;33.08
15489;BME280;7846;48.830;9.116;2023-02-13T15:01:32;99671.47;;;21.07;34.37
15489;BME280;7846;48.830;9.116;2023-02-13T15:04:20;99669.56;;;20.93;34.48
15489;BME280;7846;48.830;9.116;2023-02-13T15:06:47;99663.97;;;21.63;34.20
15489;BME280;7846;48.830;9.116;2023-02-13T15:09:58;99664.19;;;21.16;34.80
15489;BME280;7846;48.830;9.116;2023-02-13T15:12:33;99662.41;;;19.75;35.91
15489;BME280;7846;48.830;9.116;2023-02-13T15:15:00;99656.03;;;21.55;34.58
15489;BME280;7846;48.830;9.116;2023-02-13T15:17:29;99662.59;;;20.21;35.72